Time;durP1;ratioP1;P1;durP2;ratioP2;P2;SDS_P1;SDS_P2;PMS_P1;PMS_P2;Temp;Humidity;BMP_temperature;BMP_pressure;BME280_temperature;BME280_humidity;BME280_pressure;Samples;Min_cycle;Max_cycle;Signal;HPM_P1;HPM_P2
2023/12/20 00:00:58;;;;;;;14.82;2.95;;;6.50;99.90;;;;;;5017091;28;20049;-60
2023/12/20 00:03:24;;;;;;;17.10;3.22;;;6.50;99.90;;;;;;5035017;28;20076;-60
2023/12/20 00:05:50;;;;;;;8.13;2.30;;;6.50;99.90;;;;;;5000047;28;20398;-61
2023/12/20 00:08:16;;;;;;;10.88;2.65;;;6.40;99.90;;;;;;5017224;28;20048;-60
2023/12/20 00:10:43;;;;;;;13.43;2.72;;;6.40;99.90;;;;;;5016923;28;20516;-60
2023/12/20 00:13:08;;;;;;;9.60;2.55;;;6.40;99.90;;;;;;5033677;28;20486;-60
2023/12/20 00:15:34;;;;;;;9.60;2.22;;;6.40;99.90;;;;;;5016590;28;20091;-60
2023/12/20 00:18:00;;;;;;;9.75;2.65;;;6.40;99.90;;;;;;5032980;28;20034;-60
2023/12/20 00:20:26;;;;;;;11.68;2.65;;;6.40;99.90;;;;;;5016614;28;20042;-60
2023/12/20 00:22:54;;;;;;;14.45;2.78;;;6.40;99.90;;;;;;5016612;28;20558;-60
2023/12/20 00:25:20;;;;;;;14.45;3.22;;;6.40;99.90;;;;;;5016151;28;20728;-60
2023/12/20 00:27:46;;;;;;;13.50;2.80;;;6.40;99.90;;;;;;5016555;28;20072;-60
2023/12/20 00:30:11;;;;;;;15.45;3.33;;;6.40;99.90;;;;;;5034004;28;20041;-60
2023/12/20 00:32:37;;;;;;;15.52;3.58;;;6.40;99.90;;;;;;5015511;28;20045;-60
2023/12/20 00:35:03;;;;;;;13.15;2.63;;;6.50;99.90;;;;;;5029099;28;20045;-60
2023/12/20 00:37:29;;;;;;;9.45;3.38;;;6.50;99.90;;;;;;5052811;28;20045;-60
2023/12/20 00:39:55;;;;;;;10.95;3.05;;;6.50;99.90;;;;;;5035699;28;20087;-60
2023/12/20 00:42:20;;;;;;;14.85;3.47;;;6.60;99.90;;;;;;5033846;28;20531;-60
2023/12/20 00:44:46;;;;;;;17.55;4.07;;;6.60;99.90;;;;;;5021283;28;20112;-60
2023/12/20 00:47:13;;;;;;;10.23;3.42;;;6.60;99.90;;;;;;5045232;28;20125;-60
2023/12/20 00:49:38;;;;;;;13.25;2.80;;;6.60;99.90;;;;;;5035475;28;20120;-60
2023/12/20 00:52:04;;;;;;;16.33;4.18;;;6.60;99.90;;;;;;5019648;28;20049;-60
2023/12/20 00:54:30;;;;;;;15.18;3.60;;;6.60;99.90;;;;;;5051499;28;20048;-60
2023/12/20 00:56:56;;;;;;;14.57;3.97;;;6.60;99.90;;;;;;5036088;28;20044;-60
2023/12/20 00:59:21;;;;;;;16.88;3.63;;;6.60;99.90;;;;;;5052213;28;20126;-60
2023/12/20 01:01:47;;;;;;;15.25;5.38;;;6.60;99.90;;;;;;5051784;28;20041;-60
2023/12/20 01:04:13;;;;;;;17.75;3.70;;;6.60;99.90;;;;;;5049948;28;20561;-60
2023/12/20 01:06:38;;;;;;;10.70;3.03;;;6.60;99.90;;;;;;5015914;28;20041;-60
2023/12/20 01:09:04;;;;;;;16.17;3.65;;;6.70;99.90;;;;;;5033346;28;20037;-60
2023/12/20 01:11:30;;;;;;;15.23;4.53;;;6.70;99.90;;;;;;5015509;28;20393;-61
2023/12/20 01:13:55;;;;;;;11.45;2.90;;;6.70;99.90;;;;;;5016126;28;20471;-60
2023/12/20 01:16:21;;;;;;;11.40;2.65;;;6.80;99.90;;;;;;5015913;28;20073;-60
2023/12/20 01:18:46;;;;;;;15.73;3.45;;;6.80;99.90;;;;;;5019170;28;20076;-61
2023/12/20 01:21:12;;;;;;;14.43;3.65;;;6.70;99.90;;;;;;5035259;28;20036;-61
2023/12/20 01:23:38;;;;;;;18.15;2.67;;;6.70;99.90;;;;;;5051143;28;20099;-61
2023/12/20 01:26:05;;;;;;;12.77;2.28;;;6.60;99.90;;;;;;5052228;28;20091;-60
2023/12/20 01:28:31;;;;;;;8.70;2.67;;;6.60;99.90;;;;;;5034059;28;20124;-61
2023/12/20 01:30:57;;;;;;;14.27;3.28;;;6.50;99.90;;;;;;5039095;28;20124;-61
2023/12/20 01:33:23;;;;;;;17.42;3.47;;;6.50;99.90;;;;;;5035173;28;20057;-61
2023/12/20 01:35:48;;;;;;;15.07;3.90;;;6.50;99.90;;;;;;5025683;28;20044;-61
2023/12/20 01:38:14;;;;;;;15.10;4.07;;;6.50;99.90;;;;;;5031606;28;20038;-61
2023/12/20 01:40:40;;;;;;;11.40;3.60;;;6.50;99.90;;;;;;5031871;28;20045;-61
2023/12/20 01:43:08;;;;;;;13.50;3.95;;;6.50;99.90;;;;;;5031171;28;20555;-61
2023/12/20 01:45:34;;;;;;;14.60;3.70;;;6.60;99.90;;;;;;5015142;28;20069;-60
2023/12/20 01:48:02;;;;;;;9.15;3.45;;;6.50;99.90;;;;;;5033382;28;20130;-61
2023/12/20 01:50:28;;;;;;;16.42;3.70;;;6.60;99.90;;;;;;4998159;28;20045;-61
2023/12/20 01:52:57;;;;;;;15.38;3.75;;;6.70;99.90;;;;;;5027932;28;20541;-61
2023/12/20 01:55:24;;;;;;;22.85;5.45;;;6.70;99.90;;;;;;5034951;28;20505;-61
2023/12/20 01:57:51;;;;;;;13.25;4.03;;;6.80;99.90;;;;;;5033951;28;20056;-61
2023/12/20 02:00:18;;;;;;;14.82;3.35;;;6.80;99.90;;;;;;5025411;28;20142;-61
2023/12/20 02:02:45;;;;;;;14.82;4.50;;;6.80;99.90;;;;;;5014916;28;20486;-61
2023/12/20 02:05:11;;;;;;;17.70;4.55;;;6.90;99.90;;;;;;5013899;28;20053;-61
2023/12/20 02:07:37;;;;;;;24.30;4.75;;;6.80;99.90;;;;;;5015131;28;20064;-61
2023/12/20 02:10:04;;;;;;;18.73;5.65;;;6.90;99.90;;;;;;5031681;28;20041;-61
2023/12/20 02:12:30;;;;;;;11.30;3.75;;;6.90;99.90;;;;;;5013659;28;20045;-61
2023/12/20 02:14:56;;;;;;;22.40;6.10;;;7.00;99.90;;;;;;5014879;28;20470;-61
2023/12/20 02:17:23;;;;;;;18.70;5.18;;;7.00;99.90;;;;;;5015007;28;20064;-61
2023/12/20 02:19:49;;;;;;;18.65;4.28;;;7.10;99.90;;;;;;5017681;28;20080;-61
2023/12/20 02:22:15;;;;;;;18.95;4.60;;;7.10;99.90;;;;;;5015682;28;20033;-61
2023/12/20 02:24:40;;;;;;;16.98;5.15;;;7.20;99.90;;;;;;5013796;28;20041;-60
2023/12/20 02:27:07;;;;;;;12.73;3.78;;;7.10;99.90;;;;;;4997246;28;20073;-61
2023/12/20 02:29:34;;;;;;;21.48;5.43;;;7.20;99.90;;;;;;5019877;28;20045;-63
2023/12/20 02:32:00;;;;;;;20.42;4.95;;;7.20;99.90;;;;;;5033554;28;20049;-62
2023/12/20 02:34:25;;;;;;;24.17;4.47;;;7.20;99.90;;;;;;5020401;28;20045;-62
2023/12/20 02:36:51;;;;;;;19.48;4.68;;;7.30;99.90;;;;;;5019132;28;20087;-62
2023/12/20 02:39:18;;;;;;;20.58;5.80;;;7.30;99.90;;;;;;5042819;28;20120;-62
2023/12/20 02:41:43;;;;;;;17.23;4.90;;;7.30;99.90;;;;;;5051973;28;20460;-62
2023/12/20 02:44:09;;;;;;;18.55;4.70;;;7.20;99.90;;;;;;5052003;28;20115;-62
2023/12/20 02:46:35;;;;;;;20.42;5.30;;;7.30;99.90;;;;;;5020621;28;20042;-63
2023/12/20 02:49:00;;;;;;;16.55;3.88;;;7.30;99.90;;;;;;5032432;28;20033;-62
2023/12/20 02:51:26;;;;;;;22.50;4.93;;;7.20;99.90;;;;;;5030857;28;20044;-62
2023/12/20 02:53:51;;;;;;;23.08;5.88;;;7.30;99.90;;;;;;5013339;28;20498;-62
2023/12/20 02:56:17;;;;;;;19.10;4.00;;;7.20;99.90;;;;;;5030261;28;20041;-62
2023/12/20 02:58:43;;;;;;;16.85;3.47;;;7.30;99.90;;;;;;5030680;28;20124;-62
2023/12/20 03:01:08;;;;;;;11.63;3.80;;;7.20;99.90;;;;;;5029656;28;20117;-62
2023/12/20 03:03:34;;;;;;;12.02;3.65;;;7.20;99.90;;;;;;5033767;28;20037;-62
2023/12/20 03:06:00;;;;;;;20.98;3.80;;;7.10;99.90;;;;;;5034075;28;20041;-62
2023/12/20 03:08:26;;;;;;;15.23;4.65;;;7.10;99.90;;;;;;5033047;28;20049;-60
2023/12/20 03:10:53;;;;;;;14.32;3.95;;;7.00;99.90;;;;;;5050212;28;20045;-60
2023/12/20 03:13:19;;;;;;;16.15;3.70;;;7.00;99.90;;;;;;5034020;28;20045;-60
2023/12/20 03:15:45;;;;;;;14.63;4.53;;;6.90;99.90;;;;;;5032930;28;20129;-60
2023/12/20 03:18:11;;;;;;;21.48;5.90;;;7.00;99.90;;;;;;5029349;28;20388;-60
2023/12/20 03:20:36;;;;;;;17.77;5.80;;;7.00;99.90;;;;;;5014088;28;20087;-60
2023/12/20 03:23:02;;;;;;;20.20;5.00;;;7.00;99.90;;;;;;5033290;28;20477;-60
2023/12/20 03:25:28;;;;;;;19.42;5.07;;;7.00;99.90;;;;;;5033661;28;20520;-60
2023/12/20 03:27:54;;;;;;;19.30;4.93;;;7.10;99.90;;;;;;5042410;28;20072;-60
2023/12/20 03:30:20;;;;;;;31.33;5.32;;;7.10;99.90;;;;;;5017345;28;20041;-60
2023/12/20 03:32:46;;;;;;;15.93;4.28;;;7.10;99.90;;;;;;5033283;28;20084;-60
2023/12/20 03:35:12;;;;;;;21.25;4.40;;;7.10;99.90;;;;;;5016446;28;20064;-59
2023/12/20 03:37:38;;;;;;;15.00;4.80;;;7.10;99.90;;;;;;5033523;28;20072;-59
2023/12/20 03:40:04;;;;;;;14.35;3.78;;;7.20;99.90;;;;;;5036552;28;20135;-60
2023/12/20 03:42:29;;;;;;;22.08;5.43;;;7.20;99.90;;;;;;5036106;28;20045;-60
2023/12/20 03:44:55;;;;;;;17.42;4.78;;;7.20;99.90;;;;;;5037597;28;20044;-60
2023/12/20 03:47:21;;;;;;;20.15;6.40;;;7.20;99.90;;;;;;5033443;28;20123;-60
2023/12/20 03:49:47;;;;;;;18.83;5.78;;;7.30;99.90;;;;;;5016541;28;20056;-60
2023/12/20 03:52:13;;;;;;;16.08;4.28;;;7.30;99.90;;;;;;5017204;28;20136;-60
2023/12/20 03:54:38;;;;;;;16.25;4.32;;;7.30;99.90;;;;;;5016978;28;20469;-60
2023/12/20 03:57:04;;;;;;;25.33;5.35;;;7.40;99.90;;;;;;5017233;28;20045;-60
2023/12/20 03:59:34;;;;;;;14.15;5.03;;;7.40;99.90;;;;;;5036954;28;20482;-60
2023/12/20 04:02:00;;;;;;;18.00;4.57;;;7.40;99.90;;;;;;5037200;28;20492;-60
2023/12/20 04:04:25;;;;;;;18.40;4.43;;;7.40;99.90;;;;;;5035546;28;20047;-60
2023/12/20 04:06:51;;;;;;;16.70;5.13;;;7.40;99.90;;;;;;5029935;28;20460;-60
2023/12/20 04:09:17;;;;;;;14.15;4.32;;;7.50;99.90;;;;;;5053377;28;20393;-60
2023/12/20 04:11:42;;;;;;;12.60;3.35;;;7.50;99.90;;;;;;5052774;28;20466;-60
2023/12/20 04:14:08;;;;;;;20.48;4.97;;;7.50;99.90;;;;;;5053266;28;20592;-60
2023/12/20 04:16:35;;;;;;;16.92;4.00;;;7.40;99.90;;;;;;5036819;28;20033;-60
2023/12/20 04:19:00;;;;;;;15.18;4.25;;;7.40;99.90;;;;;;5052457;28;20494;-60
2023/12/20 04:21:26;;;;;;;14.52;4.07;;;7.40;99.90;;;;;;5036504;28;20075;-60
2023/12/20 04:23:52;;;;;;;16.80;3.95;;;7.40;99.90;;;;;;5052863;28;20033;-60
2023/12/20 04:26:17;;;;;;;18.75;4.95;;;7.40;99.90;;;;;;5052396;28;20083;-60
2023/12/20 04:28:43;;;;;;;26.98;5.82;;;7.40;99.90;;;;;;5019801;28;20037;-60
2023/12/20 04:31:09;;;;;;;19.17;5.30;;;7.50;99.90;;;;;;5034326;28;20441;-60
2023/12/20 04:33:34;;;;;;;23.35;5.70;;;7.50;99.90;;;;;;5016037;28;20377;-60
2023/12/20 04:36:00;;;;;;;17.35;5.95;;;7.50;99.90;;;;;;5017415;28;20095;-60
2023/12/20 04:38:26;;;;;;;14.10;6.13;;;7.60;99.90;;;;;;4999040;28;20041;-61
2023/12/20 04:40:51;;;;;;;19.92;4.13;;;7.60;99.90;;;;;;4999913;28;20049;-60
2023/12/20 04:43:17;;;;;;;14.93;4.25;;;7.60;99.90;;;;;;5032869;28;20033;-61
2023/12/20 04:45:43;;;;;;;18.90;6.43;;;7.60;99.90;;;;;;5024849;28;20044;-61
2023/12/20 04:48:09;;;;;;;17.55;4.72;;;7.60;99.90;;;;;;5036236;28;20526;-61
2023/12/20 04:50:34;;;;;;;25.10;4.43;;;7.60;99.90;;;;;;5043009;28;20045;-61
2023/12/20 04:53:00;;;;;;;16.60;5.22;;;7.60;99.90;;;;;;5035418;28;20043;-61
2023/12/20 04:55:26;;;;;;;17.42;4.10;;;7.60;99.90;;;;;;5035919;28;20044;-62
2023/12/20 04:57:52;;;;;;;17.35;5.25;;;7.60;99.90;;;;;;5035888;28;20037;-62
2023/12/20 05:00:17;;;;;;;19.35;5.05;;;7.70;99.90;;;;;;5051533;28;20037;-61
2023/12/20 05:02:44;;;;;;;15.90;4.20;;;7.70;99.90;;;;;;5035533;28;20138;-61
2023/12/20 05:05:09;;;;;;;18.90;5.20;;;7.80;99.90;;;;;;5019406;28;20051;-61
2023/12/20 05:07:35;;;;;;;16.20;4.38;;;7.70;99.90;;;;;;5051041;28;20506;-61
2023/12/20 05:10:01;;;;;;;18.02;4.68;;;7.80;99.90;;;;;;5053693;28;20043;-61
2023/12/20 05:12:27;;;;;;;15.23;3.97;;;7.80;99.90;;;;;;5035526;28;20047;-61
2023/12/20 05:14:53;;;;;;;16.70;5.63;;;7.70;99.90;;;;;;5051507;28;20045;-61
2023/12/20 05:17:20;;;;;;;19.00;4.75;;;7.80;99.90;;;;;;5036032;28;20033;-61
2023/12/20 05:19:46;;;;;;;17.02;5.13;;;7.80;99.90;;;;;;5015549;28;20041;-60
2023/12/20 05:22:11;;;;;;;25.98;7.05;;;7.80;99.90;;;;;;5014736;28;20140;-61
2023/12/20 05:24:37;;;;;;;17.27;4.88;;;7.80;99.90;;;;;;5015569;28;20037;-61
2023/12/20 05:27:03;;;;;;;16.30;5.53;;;7.80;99.90;;;;;;5016100;28;20080;-61
2023/12/20 05:29:28;;;;;;;19.38;5.85;;;7.80;99.90;;;;;;5014634;28;20050;-61
2023/12/20 05:31:54;;;;;;;15.25;4.20;;;7.80;99.90;;;;;;5031805;28;20064;-61
2023/12/20 05:34:22;;;;;;;18.98;5.05;;;7.80;99.90;;;;;;5033111;28;20045;-61
2023/12/20 05:36:48;;;;;;;19.13;4.38;;;7.80;99.90;;;;;;4998064;28;20037;-61
2023/12/20 05:39:14;;;;;;;18.80;4.28;;;7.80;99.90;;;;;;5015261;28;20048;-61
2023/12/20 05:41:39;;;;;;;17.55;4.43;;;7.80;99.90;;;;;;5034077;28;20045;-60
2023/12/20 05:44:05;;;;;;;20.67;5.65;;;7.80;99.90;;;;;;5053039;28;20492;-61
2023/12/20 05:46:30;;;;;;;17.63;5.13;;;7.80;99.90;;;;;;5034926;28;20048;-61
2023/12/20 05:48:56;;;;;;;10.57;4.45;;;7.90;99.90;;;;;;5014441;28;20038;-61
2023/12/20 05:51:22;;;;;;;17.38;6.20;;;7.80;99.90;;;;;;5015166;28;20042;-61
2023/12/20 05:53:49;;;;;;;16.08;3.83;;;7.90;99.90;;;;;;5015225;28;20040;-61
2023/12/20 05:56:15;;;;;;;25.25;4.43;;;7.90;99.90;;;;;;5018986;28;20049;-61
2023/12/20 05:58:41;;;;;;;20.33;5.13;;;7.90;99.90;;;;;;5017940;28;20096;-61
2023/12/20 06:01:08;;;;;;;18.45;5.18;;;7.90;99.90;;;;;;5034817;28;20437;-61
2023/12/20 06:03:34;;;;;;;18.98;4.90;;;7.90;99.90;;;;;;5033853;28;20045;-61
2023/12/20 06:06:06;;;;;;;16.27;4.40;;;7.90;99.90;;;;;;5034892;28;20068;-61
2023/12/20 06:08:31;;;;;;;16.42;6.15;;;8.00;99.90;;;;;;5034114;28;20040;-61
2023/12/20 06:10:57;;;;;;;25.17;5.78;;;8.00;99.90;;;;;;5050999;28;20398;-60
2023/12/20 06:13:23;;;;;;;17.55;5.88;;;8.00;99.90;;;;;;5018238;28;20481;-60
2023/12/20 06:15:48;;;;;;;18.67;5.57;;;8.00;99.90;;;;;;5031775;28;20532;-61
2023/12/20 06:18:14;;;;;;;22.73;5.03;;;8.00;99.90;;;;;;5029311;28;20045;-61
2023/12/20 06:20:40;;;;;;;23.77;5.78;;;8.00;99.90;;;;;;5017876;28;20045;-61
2023/12/20 06:23:05;;;;;;;14.68;5.18;;;8.00;99.90;;;;;;5051143;28;20044;-61
2023/12/20 06:25:31;;;;;;;25.55;7.13;;;8.00;99.90;;;;;;5050130;28;20172;-61
2023/12/20 06:27:56;;;;;;;20.35;6.00;;;8.10;99.90;;;;;;5034811;28;20044;-62
2023/12/20 06:30:22;;;;;;;27.08;5.63;;;8.10;99.90;;;;;;5042707;28;20045;-61
2023/12/20 06:32:48;;;;;;;19.40;5.75;;;8.10;99.90;;;;;;5033305;28;20049;-61
2023/12/20 06:35:14;;;;;;;14.52;5.47;;;8.10;99.90;;;;;;5033295;28;20051;-61
2023/12/20 06:37:42;;;;;;;29.85;5.40;;;8.10;99.90;;;;;;5017791;28;20119;-61
2023/12/20 06:40:09;;;;;;;18.27;5.07;;;8.10;99.90;;;;;;5017520;28;20437;-61
2023/12/20 06:42:35;;;;;;;20.60;5.10;;;8.10;99.90;;;;;;5050941;28;20119;-61
2023/12/20 06:45:00;;;;;;;17.42;4.25;;;8.10;99.90;;;;;;5040131;28;20558;-61
2023/12/20 06:47:26;;;;;;;20.35;5.38;;;8.10;99.90;;;;;;5033887;28;20045;-61
2023/12/20 06:49:52;;;;;;;16.45;5.60;;;8.10;99.90;;;;;;5051939;28;20076;-61
2023/12/20 06:52:17;;;;;;;16.65;4.93;;;8.10;99.90;;;;;;5032809;28;20045;-61
2023/12/20 06:54:43;;;;;;;20.40;5.93;;;8.10;99.90;;;;;;5034080;28;20069;-62
2023/12/20 06:57:09;;;;;;;18.15;4.47;;;8.10;99.90;;;;;;5050422;28;20044;-61
2023/12/20 06:59:41;;;;;;;16.98;4.97;;;8.10;99.90;;;;;;5032767;28;20049;-61
2023/12/20 07:02:08;;;;;;;9.80;3.35;;;8.10;99.90;;;;;;5017396;28;20049;-61
2023/12/20 07:04:34;;;;;;;15.02;4.32;;;8.10;99.90;;;;;;5024593;28;20037;-61
2023/12/20 07:07:00;;;;;;;12.68;3.58;;;8.10;99.90;;;;;;5030177;28;20127;-62
2023/12/20 07:09:26;;;;;;;13.57;3.28;;;8.10;99.90;;;;;;5013961;28;20053;-61
2023/12/20 07:11:53;;;;;;;20.90;4.15;;;8.10;99.90;;;;;;5014000;28;20071;-61
2023/12/20 07:14:18;;;;;;;12.52;4.07;;;8.00;99.90;;;;;;5021166;28;20049;-61
2023/12/20 07:16:44;;;;;;;14.85;3.83;;;8.00;99.90;;;;;;5038389;28;20112;-62
2023/12/20 07:19:09;;;;;;;12.57;4.32;;;8.00;99.90;;;;;;5037703;28;20045;-61
2023/12/20 07:21:35;;;;;;;17.95;4.82;;;8.00;99.90;;;;;;5033411;28;20044;-62
2023/12/20 07:24:01;;;;;;;19.13;4.25;;;8.00;99.90;;;;;;5023794;28;20045;-61
2023/12/20 07:26:27;;;;;;;16.10;3.40;;;8.00;99.90;;;;;;5015471;28;20041;-61
2023/12/20 07:28:52;;;;;;;12.23;3.15;;;8.00;99.90;;;;;;5014541;28;20045;-62
2023/12/20 07:31:18;;;;;;;11.93;3.97;;;8.00;99.90;;;;;;4999482;28;20067;-61
2023/12/20 07:33:44;;;;;;;13.90;3.80;;;8.00;99.90;;;;;;5032882;28;20034;-61
2023/12/20 07:36:10;;;;;;;13.43;4.65;;;8.00;99.90;;;;;;5015932;28;20486;-61
2023/12/20 07:38:35;;;;;;;11.20;3.30;;;8.00;99.90;;;;;;5034393;28;20041;-61
2023/12/20 07:41:01;;;;;;;11.68;3.45;;;8.00;99.90;;;;;;5014571;28;20052;-61
2023/12/20 07:43:27;;;;;;;17.13;6.18;;;8.00;99.90;;;;;;5033421;28;20120;-62
2023/12/20 07:45:52;;;;;;;12.18;4.45;;;8.10;99.90;;;;;;5014074;28;20056;-61
2023/12/20 07:48:18;;;;;;;16.23;4.50;;;8.10;99.90;;;;;;5031255;28;20461;-62
2023/12/20 07:50:44;;;;;;;12.93;3.42;;;8.10;99.90;;;;;;5021758;28;20037;-62
2023/12/20 07:53:12;;;;;;;15.50;4.20;;;8.10;99.90;;;;;;5031439;28;20555;-62
2023/12/20 07:55:39;;;;;;;17.13;4.30;;;8.10;99.90;;;;;;5045548;28;20037;-61
2023/12/20 07:58:05;;;;;;;11.13;3.15;;;8.10;99.90;;;;;;5020896;28;20200;-61
2023/12/20 08:00:31;;;;;;;12.20;3.50;;;8.00;99.90;;;;;;5029579;28;20795;-62
2023/12/20 08:02:56;;;;;;;15.70;4.70;;;8.00;99.90;;;;;;5013940;28;20149;-62
2023/12/20 08:05:22;;;;;;;13.68;3.28;;;8.00;99.90;;;;;;4990917;28;20053;-61
2023/12/20 08:07:47;;;;;;;17.75;2.78;;;8.00;99.90;;;;;;5027998;28;20033;-61
2023/12/20 08:10:13;;;;;;;13.63;3.70;;;8.00;99.90;;;;;;5008429;28;20053;-62
2023/12/20 08:12:39;;;;;;;11.35;3.72;;;8.00;99.90;;;;;;4997467;28;20364;-61
2023/12/20 08:15:06;;;;;;;17.27;3.28;;;8.00;99.90;;;;;;5007819;28;20077;-60
2023/12/20 08:17:31;;;;;;;16.27;3.17;;;8.00;99.90;;;;;;5008613;28;20056;-60
2023/12/20 08:19:57;;;;;;;12.40;3.90;;;8.00;99.90;;;;;;5013218;28;20037;-61
2023/12/20 08:22:23;;;;;;;13.68;4.65;;;8.00;99.90;;;;;;4986522;28;20042;-60
2023/12/20 08:24:49;;;;;;;14.00;3.03;;;7.90;99.90;;;;;;5013525;28;20041;-60
2023/12/20 08:27:15;;;;;;;13.98;3.67;;;7.90;99.90;;;;;;5015348;28;20046;-60
2023/12/20 08:29:40;;;;;;;10.05;3.20;;;7.80;99.90;;;;;;4997739;28;20487;-60
2023/12/20 08:32:06;;;;;;;18.02;3.47;;;7.80;99.90;;;;;;4997803;28;20787;-61
2023/12/20 08:34:31;;;;;;;14.95;5.38;;;7.80;99.90;;;;;;4989541;28;20531;-61
2023/12/20 08:36:57;;;;;;;18.17;5.20;;;7.80;99.90;;;;;;4994945;28;20454;-62
2023/12/20 08:39:23;;;;;;;15.05;4.55;;;7.90;99.90;;;;;;5013031;28;20056;-61
2023/12/20 08:41:48;;;;;;;21.17;5.00;;;7.90;99.90;;;;;;5013159;28;20136;-61
2023/12/20 08:44:14;;;;;;;17.10;4.60;;;8.00;99.90;;;;;;4997241;28;20129;-60
2023/12/20 08:46:40;;;;;;;16.63;3.30;;;8.00;99.90;;;;;;5008119;28;20045;-61
2023/12/20 08:49:05;;;;;;;9.20;2.22;;;8.10;99.90;;;;;;5009129;28;20482;-61
2023/12/20 08:51:31;;;;;;;6.35;1.90;;;7.80;99.90;;;;;;5009862;28;20053;-59
2023/12/20 08:53:56;;;;;;;14.50;3.03;;;7.50;99.90;;;;;;4994146;28;20034;-60
2023/12/20 08:56:22;;;;;;;16.90;2.58;;;7.20;99.90;;;;;;4995261;28;20042;-60
2023/12/20 08:58:48;;;;;;;10.60;2.53;;;7.00;99.90;;;;;;5013452;28;20046;-60
2023/12/20 09:01:14;;;;;;;13.25;3.20;;;6.80;99.90;;;;;;4996271;28;20104;-60
2023/12/20 09:03:40;;;;;;;10.13;1.92;;;6.60;99.90;;;;;;5031518;28;20512;-60
2023/12/20 09:06:06;;;;;;;6.47;2.13;;;6.50;99.90;;;;;;5017535;28;20081;-61
2023/12/20 09:08:32;;;;;;;11.75;2.30;;;6.40;99.90;;;;;;5033943;28;20107;-60
2023/12/20 09:10:58;;;;;;;11.55;3.05;;;6.30;99.90;;;;;;5049518;28;20049;-60
2023/12/20 09:13:29;;;;;;;6.82;1.73;;;6.30;99.90;;;;;;5046839;28;20072;-60
2023/12/20 09:15:56;;;;;;;15.23;2.33;;;6.20;99.90;;;;;;5033479;28;20040;-60
2023/12/20 09:18:21;;;;;;;6.93;1.65;;;6.20;99.90;;;;;;5016265;28;20494;-60
2023/12/20 09:20:47;;;;;;;14.75;2.50;;;6.20;99.90;;;;;;5032590;28;20049;-61
2023/12/20 09:23:13;;;;;;;7.03;1.83;;;6.20;99.90;;;;;;5047291;28;20104;-60
2023/12/20 09:25:38;;;;;;;9.32;2.25;;;6.20;99.90;;;;;;5013007;28;20482;-61
2023/12/20 09:28:04;;;;;;;8.10;2.25;;;6.20;99.90;;;;;;5025881;28;20417;-61
2023/12/20 09:30:31;;;;;;;14.18;2.45;;;6.20;99.90;;;;;;5032544;28;20397;-60
2023/12/20 09:32:57;;;;;;;9.10;2.92;;;6.20;99.90;;;;;;5032132;28;20478;-60
2023/12/20 09:35:22;;;;;;;11.52;2.50;;;6.30;99.90;;;;;;5027520;28;20045;-60
2023/12/20 09:37:49;;;;;;;7.72;2.00;;;6.30;99.90;;;;;;5023203;28;20139;-60
2023/12/20 09:40:19;;;;;;;8.80;2.20;;;6.30;99.90;;;;;;5012489;28;20060;-60
2023/12/20 09:43:04;;;;;;;10.45;2.90;;;6.30;99.90;;;;;;5038162;28;20224;-60
2023/12/20 09:45:31;;;;;;;21.95;3.70;;;6.40;99.90;;;;;;5012682;28;20184;-60
2023/12/20 09:47:58;;;;;;;11.05;2.53;;;6.50;99.90;;;;;;5019410;28;20092;-59
2023/12/20 09:50:24;;;;;;;9.82;2.47;;;6.60;99.90;;;;;;5014967;28;20058;-59
2023/12/20 09:52:53;;;;;;;8.75;3.17;;;6.70;99.90;;;;;;5023929;28;20565;-60
2023/12/20 09:55:20;;;;;;;15.35;4.18;;;6.70;99.90;;;;;;5028372;28;20485;-60
2023/12/20 09:57:49;;;;;;;13.15;3.72;;;6.80;99.90;;;;;;5046414;28;20037;-60
2023/12/20 10:00:15;;;;;;;8.73;2.58;;;6.80;99.90;;;;;;5047832;28;20375;-59
2023/12/20 10:03:01;;;;;;;12.73;2.60;;;6.80;99.90;;;;;;5023689;28;20045;-60
2023/12/20 10:05:34;;;;;;;13.85;3.53;;;6.80;99.90;;;;;;5026001;28;20048;-60
2023/12/20 10:08:01;;;;;;;7.35;2.53;;;6.80;99.90;;;;;;5031964;28;20770;-60
2023/12/20 10:10:27;;;;;;;14.90;3.25;;;6.80;99.90;;;;;;5026591;28;20810;-60
2023/12/20 10:13:07;;;;;;;10.20;2.88;;;6.90;99.90;;;;;;5030112;28;20045;-60
2023/12/20 10:15:34;;;;;;;9.75;3.45;;;6.90;99.90;;;;;;5007093;28;20081;-60
2023/12/20 10:18:01;;;;;;;8.85;2.28;;;7.00;99.90;;;;;;5008793;28;20065;-60
2023/12/20 10:20:28;;;;;;;8.07;3.53;;;7.10;99.90;;;;;;5027093;28;20051;-60
2023/12/20 10:22:58;;;;;;;10.38;3.75;;;7.10;99.90;;;;;;4998157;28;20041;-60
2023/12/20 10:25:24;;;;;;;14.02;2.42;;;7.20;99.90;;;;;;5015388;28;20053;-60
2023/12/20 10:28:08;;;;;;;15.45;3.33;;;7.30;99.90;;;;;;5052280;28;20041;-60
2023/12/20 10:30:33;;;;;;;11.95;2.88;;;7.40;99.90;;;;;;5033543;28;20083;-60
2023/12/20 10:32:59;;;;;;;12.05;2.75;;;7.40;99.90;;;;;;5033980;28;20049;-61
2023/12/20 10:35:25;;;;;;;18.58;3.28;;;7.40;99.90;;;;;;5033289;28;20128;-60
2023/12/20 10:37:56;;;;;;;11.75;2.90;;;7.40;99.90;;;;;;5030446;28;20048;-61
2023/12/20 10:40:22;;;;;;;13.20;5.10;;;7.40;99.90;;;;;;5032212;28;20041;-60
2023/12/20 10:42:50;;;;;;;12.45;2.70;;;7.40;99.90;;;;;;4999161;28;20044;-61
2023/12/20 10:45:16;;;;;;;16.35;4.07;;;7.40;99.90;;;;;;5043268;28;20479;-62
2023/12/20 10:47:46;;;;;;;13.13;2.90;;;7.40;99.90;;;;;;5016617;28;20124;-62
2023/12/20 10:50:12;;;;;;;12.30;3.50;;;7.40;99.90;;;;;;5054721;28;20072;-62
2023/12/20 10:52:40;;;;;;;11.20;2.65;;;7.40;99.90;;;;;;5037491;28;20556;-62
2023/12/20 10:55:06;;;;;;;13.52;3.38;;;7.40;99.90;;;;;;5026995;28;20045;-62
2023/12/20 10:57:32;;;;;;;11.20;2.60;;;7.40;99.90;;;;;;5035843;28;20037;-62
2023/12/20 11:00:04;;;;;;;10.98;3.67;;;7.40;99.90;;;;;;5037212;28;20045;-62
2023/12/20 11:02:32;;;;;;;16.20;2.78;;;7.50;99.90;;;;;;5037619;28;20053;-62
2023/12/20 11:05:36;;;;;;;12.02;4.32;;;7.50;99.90;;;;;;5038318;28;20036;-61
2023/12/20 11:08:35;;;;;;;16.67;3.55;;;7.50;99.90;;;;;;5038095;28;20124;-61
2023/12/20 11:11:10;;;;;;;18.75;3.70;;;7.50;99.90;;;;;;5010264;28;20044;-62
2023/12/20 11:13:57;;;;;;;13.57;3.40;;;7.50;99.90;;;;;;5037097;28;20040;-63
2023/12/20 11:16:22;;;;;;;16.60;3.08;;;7.50;99.90;;;;;;5037747;28;20279;-61
2023/12/20 11:18:51;;;;;;;21.83;3.45;;;7.50;99.90;;;;;;5036102;28;20059;-61
2023/12/20 11:21:16;;;;;;;22.85;4.38;;;7.50;99.90;;;;;;5054917;28;20052;-61
2023/12/20 11:23:42;;;;;;;20.85;3.92;;;7.50;99.90;;;;;;5021059;28;20049;-61
2023/12/20 11:26:08;;;;;;;11.98;3.53;;;7.60;99.90;;;;;;5054377;28;20084;-61
2023/12/20 11:28:34;;;;;;;17.08;2.72;;;7.60;99.90;;;;;;5036872;28;20052;-62
2023/12/20 11:31:02;;;;;;;17.67;3.00;;;7.60;99.90;;;;;;5038051;28;20052;-61
2023/12/20 11:33:36;;;;;;;13.15;3.35;;;7.60;99.90;;;;;;5036399;28;20063;-61
2023/12/20 11:36:02;;;;;;;14.23;2.75;;;7.60;99.90;;;;;;5037705;28;20049;-61
2023/12/20 11:38:37;;;;;;;10.50;2.45;;;7.60;99.90;;;;;;5037191;28;20060;-61
2023/12/20 11:41:06;;;;;;;9.63;3.33;;;7.60;99.90;;;;;;5037291;28;20095;-61
2023/12/20 11:43:39;;;;;;;9.02;2.42;;;7.60;99.90;;;;;;5036855;28;20780;-61
2023/12/20 11:46:09;;;;;;;10.65;3.13;;;7.70;99.90;;;;;;5020942;28;20136;-61
2023/12/20 11:48:37;;;;;;;9.88;2.20;;;7.70;99.90;;;;;;5036643;28;20086;-61
2023/12/20 11:51:09;;;;;;;12.45;2.92;;;7.70;99.90;;;;;;5037263;28;20063;-61
2023/12/20 11:53:36;;;;;;;12.85;3.15;;;7.80;99.90;;;;;;5053526;28;20045;-61
2023/12/20 11:56:03;;;;;;;11.65;2.30;;;7.80;99.90;;;;;;5036421;28;20048;-61
2023/12/20 11:58:29;;;;;;;10.77;2.08;;;7.80;99.90;;;;;;5036935;28;20486;-61
2023/12/20 12:00:55;;;;;;;11.23;2.38;;;7.80;99.90;;;;;;5036955;28;20120;-61
2023/12/20 12:03:21;;;;;;;10.55;3.08;;;7.80;99.90;;;;;;5016204;28;20051;-61
2023/12/20 12:05:50;;;;;;;11.65;3.63;;;7.80;99.90;;;;;;5000624;28;20461;-61
2023/12/20 12:08:17;;;;;;;11.52;2.53;;;7.80;99.90;;;;;;5016773;28;20049;-61
2023/12/20 12:10:46;;;;;;;9.07;2.80;;;7.80;99.90;;;;;;5016008;28;20045;-61
2023/12/20 12:13:14;;;;;;;10.32;2.50;;;7.80;99.90;;;;;;5016754;28;20099;-61
2023/12/20 12:15:39;;;;;;;10.30;2.58;;;7.80;99.90;;;;;;5015966;28;20517;-61
2023/12/20 12:18:05;;;;;;;11.20;2.67;;;7.80;99.90;;;;;;5017097;28;20037;-61
2023/12/20 12:20:31;;;;;;;12.55;3.15;;;7.80;99.90;;;;;;4999937;28;20120;-61
2023/12/20 12:23:01;;;;;;;11.85;3.72;;;7.80;99.90;;;;;;5015941;28;20125;-61
2023/12/20 12:25:27;;;;;;;11.75;4.00;;;7.80;99.90;;;;;;5016512;28;20124;-61
2023/12/20 12:27:53;;;;;;;10.63;2.40;;;7.80;99.90;;;;;;5016633;28;20053;-61
2023/12/20 12:30:19;;;;;;;14.00;3.42;;;7.80;99.90;;;;;;5015670;28;20072;-61
2023/12/20 12:32:44;;;;;;;12.65;2.88;;;7.80;99.90;;;;;;5000079;28;20119;-61
2023/12/20 12:35:10;;;;;;;9.10;2.47;;;7.80;99.90;;;;;;5016241;28;20045;-60
2023/12/20 12:37:40;;;;;;;12.50;3.05;;;7.80;99.90;;;;;;5015564;28;20037;-60
2023/12/20 12:40:09;;;;;;;10.70;2.70;;;7.90;99.90;;;;;;5016622;28;20052;-60
2023/12/20 12:42:36;;;;;;;29.58;6.43;;;7.90;99.90;;;;;;5016521;28;20136;-61
2023/12/20 12:45:01;;;;;;;9.95;2.35;;;7.90;99.90;;;;;;5015731;28;20045;-61